Time;durP1;ratioP1;P1;durP2;ratioP2;P2;SDS_P1;SDS_P2;PMS_P1;PMS_P2;Temp;Humidity;BMP_temperature;BMP_pressure;BME280_temperature;BME280_humidity;BME280_pressure;Samples;Min_cycle;Max_cycle;Signal;HPM_P1;HPM_P2
2021/10/28 00:14:47;;;;;;;3.72;1.00;;;;;;;;;;5068367;28;21239;-78
2021/10/28 00:17:18;;;;;;;2.65;1.10;;;;;;;;;;5065345;28;20055;-78
2021/10/28 00:19:45;;;;;;;2.45;1.05;;;;;;;;;;5063305;28;20033;-77
2021/10/28 00:22:13;;;;;;;5.38;1.00;;;;;;;;;;5068129;28;20058;-78
2021/10/28 00:24:40;;;;;;;2.55;0.88;;;;;;;;;;5074290;28;20052;-78
2021/10/28 00:27:06;;;;;;;2.78;1.10;;;;;;;;;;5064913;28;20060;-78
2021/10/28 00:29:33;;;;;;;3.28;0.90;;;;;;;;;;5067421;28;20572;-78
2021/10/28 00:32:00;;;;;;;2.05;0.88;;;;;;;;;;5068034;28;20098;-77
2021/10/28 00:34:26;;;;;;;4.30;1.10;;;;;;;;;;5066205;28;21265;-77
2021/10/28 00:36:53;;;;;;;2.30;1.08;;;;;;;;;;5068556;28;20056;-77
2021/10/28 00:39:20;;;;;;;2.67;0.90;;;;;;;;;;5061924;28;20082;-77
2021/10/28 00:41:48;;;;;;;5.00;1.10;;;;;;;;;;5068787;28;20032;-76
2021/10/28 00:44:14;;;;;;;2.03;0.93;;;;;;;;;;5067892;28;20060;-76
2021/10/28 00:46:41;;;;;;;3.22;1.02;;;;;;;;;;5065784;28;20507;-76
2021/10/28 00:49:09;;;;;;;2.65;1.08;;;;;;;;;;5068451;28;20063;-76
2021/10/28 00:51:36;;;;;;;2.85;1.13;;;;;;;;;;5059439;28;20056;-76
2021/10/28 00:54:05;;;;;;;5.20;1.25;;;;;;;;;;5064665;28;20216;-76
2021/10/28 00:56:32;;;;;;;2.25;0.93;;;;;;;;;;5066245;28;20125;-76
2021/10/28 00:59:01;;;;;;;4.45;1.30;;;;;;;;;;5066336;28;20052;-75
2021/10/28 01:01:27;;;;;;;1.83;0.95;;;;;;;;;;5063641;28;20315;-76
2021/10/28 01:03:54;;;;;;;2.50;0.98;;;;;;;;;;5063687;28;20453;-76
2021/10/28 01:06:21;;;;;;;4.53;1.13;;;;;;;;;;5062617;28;20503;-76
2021/10/28 01:08:47;;;;;;;2.65;1.08;;;;;;;;;;5068636;28;20497;-75
2021/10/28 01:11:14;;;;;;;5.00;1.15;;;;;;;;;;5067625;28;20044;-75
2021/10/28 01:13:41;;;;;;;2.08;0.90;;;;;;;;;;5082925;28;20056;-75
2021/10/28 01:16:08;;;;;;;11.07;1.20;;;;;;;;;;5068181;28;20060;-77
2021/10/28 01:18:38;;;;;;;3.67;1.30;;;;;;;;;;5069027;28;20060;-75
2021/10/28 01:21:06;;;;;;;2.40;0.90;;;;;;;;;;5069045;28;20848;-77
2021/10/28 01:23:33;;;;;;;3.03;1.20;;;;;;;;;;5068758;28;20086;-78
2021/10/28 01:26:01;;;;;;;1.80;0.80;;;;;;;;;;5071556;28;20060;-76
2021/10/28 01:28:30;;;;;;;2.45;1.00;;;;;;;;;;5066808;28;21209;-77
2021/10/28 01:30:58;;;;;;;2.65;1.00;;;;;;;;;;5070113;28;20032;-77
2021/10/28 01:33:25;;;;;;;2.83;1.05;;;;;;;;;;5068956;28;20052;-76
2021/10/28 01:35:51;;;;;;;2.10;0.80;;;;;;;;;;5066963;28;20134;-76
2021/10/28 01:38:18;;;;;;;2.53;1.00;;;;;;;;;;5070023;28;20491;-77
2021/10/28 01:40:53;;;;;;;2.25;0.95;;;;;;;;;;5070931;28;20056;-77
2021/10/28 01:43:20;;;;;;;2.65;0.93;;;;;;;;;;5069209;28;20497;-77
2021/10/28 01:45:46;;;;;;;2.58;1.13;;;;;;;;;;5068427;28;20125;-76
2021/10/28 01:48:13;;;;;;;2.28;1.00;;;;;;;;;;5066232;28;20064;-76
2021/10/28 01:50:41;;;;;;;3.53;0.90;;;;;;;;;;5071563;28;20053;-77
2021/10/28 01:53:07;;;;;;;2.13;0.98;;;;;;;;;;5068855;28;20065;-77
2021/10/28 01:55:33;;;;;;;2.22;1.02;;;;;;;;;;5069949;28;20570;-77
2021/10/28 01:58:00;;;;;;;2.92;0.90;;;;;;;;;;5073088;28;20128;-77
2021/10/28 02:00:26;;;;;;;1.90;1.00;;;;;;;;;;5069728;28;20056;-77
2021/10/28 02:02:54;;;;;;;2.33;1.00;;;;;;;;;;5072548;28;20053;-77
2021/10/28 02:05:22;;;;;;;4.07;1.08;;;;;;;;;;5068224;28;20155;-77
2021/10/28 02:07:50;;;;;;;3.35;1.08;;;;;;;;;;5063501;28;20445;-76
2021/10/28 02:10:17;;;;;;;2.85;0.90;;;;;;;;;;5066676;28;20101;-76
2021/10/28 02:12:45;;;;;;;2.63;1.10;;;;;;;;;;5069416;28;20102;-76
2021/10/28 02:15:15;;;;;;;4.25;1.20;;;;;;;;;;5045753;28;20095;-77
2021/10/28 02:17:42;;;;;;;2.20;1.00;;;;;;;;;;5063482;28;20059;-77
2021/10/28 02:20:10;;;;;;;2.28;0.93;;;;;;;;;;5067332;28;20561;-76
2021/10/28 02:22:36;;;;;;;2.65;1.00;;;;;;;;;;5075988;28;20060;-77
2021/10/28 02:25:03;;;;;;;3.25;0.90;;;;;;;;;;5066992;28;20037;-77
2021/10/28 02:27:30;;;;;;;3.28;0.90;;;;;;;;;;5065529;28;20072;-76
2021/10/28 02:29:57;;;;;;;3.53;0.95;;;;;;;;;;5071760;28;20515;-77
2021/10/28 02:32:23;;;;;;;2.08;1.00;;;;;;;;;;5072382;28;20056;-76
2021/10/28 02:34:50;;;;;;;2.45;1.00;;;;;;;;;;5068440;28;20068;-78
2021/10/28 02:37:17;;;;;;;2.58;1.00;;;;;;;;;;5068339;28;20437;-78
2021/10/28 02:39:44;;;;;;;2.33;1.10;;;;;;;;;;5071739;28;20063;-76
2021/10/28 02:42:10;;;;;;;1.63;0.90;;;;;;;;;;5065539;28;20059;-75
2021/10/28 02:44:36;;;;;;;3.17;1.05;;;;;;;;;;5062218;28;20075;-77
2021/10/28 02:47:03;;;;;;;1.73;0.80;;;;;;;;;;5068469;28;20385;-77
2021/10/28 02:49:30;;;;;;;1.88;0.98;;;;;;;;;;5064873;28;20064;-77
2021/10/28 02:51:56;;;;;;;3.60;1.10;;;;;;;;;;5055798;28;20060;-77
2021/10/28 02:54:23;;;;;;;2.88;1.10;;;;;;;;;;5071152;28;20070;-77
2021/10/28 02:56:50;;;;;;;3.13;1.20;;;;;;;;;;5063072;28;20060;-76
2021/10/28 02:59:16;;;;;;;2.92;1.00;;;;;;;;;;5059814;28;20071;-77
2021/10/28 03:01:45;;;;;;;3.33;0.90;;;;;;;;;;5066811;28;20068;-76
2021/10/28 03:04:12;;;;;;;1.88;0.90;;;;;;;;;;5066779;28;20249;-77
2021/10/28 03:06:40;;;;;;;3.60;1.17;;;;;;;;;;5067920;28;20118;-76
2021/10/28 03:09:17;;;;;;;2.28;1.20;;;;;;;;;;5068036;28;20436;-76
2021/10/28 03:11:46;;;;;;;1.42;0.90;;;;;;;;;;5060055;28;20106;-76
2021/10/28 03:14:14;;;;;;;2.05;1.00;;;;;;;;;;5064845;28;20073;-76
2021/10/28 03:27:29;;;;;;;2.70;0.98;;;;;;;;;;5059329;28;20093;-79
2021/10/28 03:29:56;;;;;;;2.75;1.30;;;;;;;;;;5059790;28;20048;-79
2021/10/28 03:32:23;;;;;;;2.20;0.98;;;;;;;;;;5055559;28;20061;-79
2021/10/28 03:34:51;;;;;;;2.47;1.08;;;;;;;;;;5060972;28;20064;-80
2021/10/28 03:37:30;;;;;;;2.88;1.27;;;;;;;;;;5059276;28;20570;-80
2021/10/28 04:29:47;;;;;;;1.70;0.80;;;;;;;;;;5057363;28;21178;-78
2021/10/28 04:32:13;;;;;;;2.00;1.20;;;;;;;;;;5057516;28;20117;-79
2021/10/28 04:34:40;;;;;;;2.75;1.10;;;;;;;;;;5063696;28;20503;-79
2021/10/28 04:37:08;;;;;;;1.80;1.10;;;;;;;;;;5065283;28;20096;-79
2021/10/28 04:39:35;;;;;;;2.97;0.98;;;;;;;;;;5053704;28;20053;-79
2021/10/28 04:42:01;;;;;;;2.95;1.00;;;;;;;;;;5065296;28;20064;-79
2021/10/28 04:44:28;;;;;;;1.67;0.90;;;;;;;;;;5065519;28;20164;-79
2021/10/28 04:46:54;;;;;;;2.15;1.10;;;;;;;;;;5060280;28;20056;-79
2021/10/28 04:49:20;;;;;;;1.50;0.95;;;;;;;;;;5056067;28;20067;-79
2021/10/28 04:51:47;;;;;;;2.13;1.00;;;;;;;;;;5059746;28;20068;-79
2021/10/28 04:54:14;;;;;;;2.70;1.20;;;;;;;;;;5063207;28;20064;-79
2021/10/28 04:56:40;;;;;;;2.28;1.15;;;;;;;;;;5064162;28;20116;-79
2021/10/28 04:59:06;;;;;;;2.33;1.10;;;;;;;;;;5070146;28;20133;-79
2021/10/28 05:01:34;;;;;;;1.50;0.90;;;;;;;;;;5066554;28;20060;-79
2021/10/28 05:04:00;;;;;;;2.97;1.20;;;;;;;;;;5062952;28;20067;-80
2021/10/28 05:06:27;;;;;;;2.10;1.10;;;;;;;;;;5065131;28;20048;-79
2021/10/28 05:08:53;;;;;;;1.45;1.08;;;;;;;;;;5060676;28;20460;-79
2021/10/28 05:11:20;;;;;;;3.05;1.10;;;;;;;;;;5059141;28;20060;-80
2021/10/28 05:13:47;;;;;;;2.33;1.10;;;;;;;;;;5061228;28;20055;-79
2021/10/28 05:16:14;;;;;;;1.90;0.90;;;;;;;;;;5064633;28;20095;-80
2021/10/28 05:18:41;;;;;;;2.08;1.10;;;;;;;;;;5066633;28;20056;-79
2021/10/28 05:21:08;;;;;;;3.25;1.05;;;;;;;;;;5066001;28;20064;-79
2021/10/28 05:23:34;;;;;;;2.13;1.10;;;;;;;;;;5062514;28;20516;-80
2021/10/28 05:26:01;;;;;;;1.63;1.23;;;;;;;;;;5062732;28;20151;-79
2021/10/28 05:28:27;;;;;;;2.22;1.00;;;;;;;;;;5059552;28;20579;-79
2021/10/28 05:30:53;;;;;;;2.33;1.00;;;;;;;;;;5062650;28;20052;-79
2021/10/28 05:33:20;;;;;;;1.83;1.25;;;;;;;;;;5057978;28;20068;-79
2021/10/28 05:35:46;;;;;;;2.00;1.15;;;;;;;;;;5055832;28;20037;-79
2021/10/28 05:38:13;;;;;;;2.08;1.25;;;;;;;;;;5058537;28;20046;-79
2021/10/28 05:40:40;;;;;;;2.50;1.10;;;;;;;;;;5062454;28;20048;-77
2021/10/28 05:43:08;;;;;;;1.42;1.00;;;;;;;;;;5060406;28;20068;-77
2021/10/28 05:45:36;;;;;;;3.65;1.75;;;;;;;;;;5063308;28;20052;-77
2021/10/28 05:48:03;;;;;;;2.92;1.15;;;;;;;;;;5055872;28;20056;-77
2021/10/28 05:50:30;;;;;;;1.88;1.10;;;;;;;;;;5066509;28;20059;-77
2021/10/28 05:52:58;;;;;;;2.25;1.08;;;;;;;;;;5070504;28;20064;-77
2021/10/28 05:55:25;;;;;;;1.77;0.90;;;;;;;;;;5068125;28;20068;-76
2021/10/28 05:57:52;;;;;;;2.45;1.30;;;;;;;;;;5066148;28;20059;-78
2021/10/28 06:00:19;;;;;;;2.85;0.95;;;;;;;;;;5072041;28;20451;-77
2021/10/28 06:02:46;;;;;;;5.57;1.05;;;;;;;;;;5070704;28;20060;-77
2021/10/28 06:05:12;;;;;;;1.58;0.90;;;;;;;;;;5067249;28;20056;-78
2021/10/28 06:07:39;;;;;;;2.10;0.93;;;;;;;;;;5067504;28;20565;-77
2021/10/28 06:10:06;;;;;;;3.65;1.08;;;;;;;;;;5059109;28;20163;-78
2021/10/28 06:12:39;;;;;;;1.50;1.08;;;;;;;;;;5063512;28;20798;-77
2021/10/28 06:15:06;;;;;;;2.00;1.20;;;;;;;;;;5062953;28;20110;-78
2021/10/28 06:17:35;;;;;;;3.60;1.00;;;;;;;;;;5061605;28;20106;-77
2021/10/28 06:20:03;;;;;;;2.45;1.33;;;;;;;;;;5068218;28;20048;-77
2021/10/28 06:22:30;;;;;;;1.83;1.20;;;;;;;;;;5068610;28;21367;-80
2021/10/28 06:24:57;;;;;;;1.60;0.88;;;;;;;;;;5070397;28;20056;-80
2021/10/28 06:27:24;;;;;;;1.90;1.00;;;;;;;;;;5071957;28;20112;-80
2021/10/28 06:29:50;;;;;;;1.58;1.00;;;;;;;;;;5073073;28;20068;-79
2021/10/28 06:32:17;;;;;;;1.60;1.05;;;;;;;;;;5072266;28;20211;-80
2021/10/28 06:34:45;;;;;;;3.15;1.13;;;;;;;;;;5071204;28;20124;-80
2021/10/28 06:37:12;;;;;;;1.70;1.00;;;;;;;;;;5067695;28;20114;-79
2021/10/28 06:39:39;;;;;;;2.38;1.10;;;;;;;;;;5066587;28;20106;-79
2021/10/28 06:42:07;;;;;;;2.03;0.98;;;;;;;;;;5070729;28;20063;-80
2021/10/28 06:44:34;;;;;;;2.03;1.00;;;;;;;;;;5057211;28;20079;-80
2021/10/28 06:47:01;;;;;;;2.95;1.05;;;;;;;;;;5072323;28;20031;-80
2021/10/28 06:49:30;;;;;;;2.85;1.25;;;;;;;;;;5062791;28;20122;-80
2021/10/28 06:51:56;;;;;;;2.10;1.00;;;;;;;;;;5063022;28;20429;-80
2021/10/28 06:54:34;;;;;;;1.90;1.25;;;;;;;;;;5069728;28;20196;-80
2021/10/28 06:57:15;;;;;;;2.28;1.17;;;;;;;;;;5069829;28;20106;-80
2021/10/28 07:04:59;;;;;;;1.73;1.08;;;;;;;;;;5069279;28;20060;-80
2021/10/28 07:07:26;;;;;;;2.47;1.30;;;;;;;;;;5068816;28;20504;-80
2021/10/28 07:10:27;;;;;;;1.42;1.10;;;;;;;;;;5069873;28;20095;-79
2021/10/28 07:13:02;;;;;;;2.33;1.10;;;;;;;;;;5069155;28;20686;-80
2021/10/28 07:15:37;;;;;;;1.65;1.10;;;;;;;;;;5066734;28;20072;-80
2021/10/28 07:21:55;;;;;;;3.08;1.13;;;;;;;;;;5068273;28;20082;-80
2021/10/28 07:26:24;;;;;;;1.90;1.10;;;;;;;;;;5071792;28;20059;-80
2021/10/28 07:34:31;;;;;;;3.05;1.20;;;;;;;;;;5028346;28;20064;-79
2021/10/28 08:20:32;;;;;;;1.70;1.13;;;;;;;;;;5065193;28;20086;-80
2021/10/28 08:31:08;;;;;;;2.63;1.27;;;;;;;;;;5057815;28;20081;-80
2021/10/28 08:33:34;;;;;;;2.47;1.30;;;;;;;;;;5078097;28;20056;-80
2021/10/28 08:36:09;;;;;;;1.70;1.10;;;;;;;;;;5066243;28;20053;-79
2021/10/28 08:38:39;;;;;;;3.05;1.33;;;;;;;;;;5064944;28;21580;-80
2021/10/28 08:41:07;;;;;;;2.40;1.40;;;;;;;;;;5059140;28;20056;-80
2021/10/28 08:43:35;;;;;;;2.17;1.38;;;;;;;;;;5063475;28;20483;-80
2021/10/28 08:46:04;;;;;;;2.75;1.42;;;;;;;;;;5072216;28;20191;-80
2021/10/28 08:48:33;;;;;;;2.05;1.35;;;;;;;;;;5063703;28;20420;-79
2021/10/28 08:51:14;;;;;;;2.13;1.20;;;;;;;;;;5069510;28;20560;-79
2021/10/28 08:56:19;;;;;;;2.88;1.55;;;;;;;;;;5063070;28;20060;-79
2021/10/28 09:24:34;;;;;;;2.80;1.63;;;;;;;;;;5060718;28;20113;-78
2021/10/28 09:27:09;;;;;;;2.30;1.50;;;;;;;;;;5064620;28;20492;-80
2021/10/28 09:44:18;;;;;;;2.40;1.80;;;;;;;;;;5061773;28;20311;-79
2021/10/28 09:46:50;;;;;;;2.65;1.70;;;;;;;;;;5067711;28;20276;-79
2021/10/28 09:54:35;;;;;;;2.63;1.60;;;;;;;;;;5067191;28;20106;-79
2021/10/28 09:59:47;;;;;;;3.15;1.80;;;;;;;;;;5066000;28;20467;-78
2021/10/28 10:02:35;;;;;;;3.55;1.80;;;;;;;;;;5067860;28;20089;-79
2021/10/28 10:05:11;;;;;;;2.78;1.67;;;;;;;;;;5059297;28;20147;-78
2021/10/28 10:07:39;;;;;;;2.92;1.90;;;;;;;;;;5061294;28;20251;-79
2021/10/28 10:10:06;;;;;;;5.22;1.75;;;;;;;;;;5061918;28;20519;-80
2021/10/28 10:12:32;;;;;;;2.45;1.70;;;;;;;;;;5065932;28;20113;-80
2021/10/28 10:15:01;;;;;;;4.70;2.20;;;;;;;;;;5071117;28;20084;-78
2021/10/28 10:17:28;;;;;;;4.30;2.03;;;;;;;;;;5068508;28;20056;-78
2021/10/28 10:19:57;;;;;;;4.03;2.15;;;;;;;;;;5068854;28;20078;-78
2021/10/28 10:22:57;;;;;;;6.40;2.55;;;;;;;;;;5070838;28;20048;-78
2021/10/28 10:25:40;;;;;;;3.38;1.88;;;;;;;;;;5064065;28;20069;-78
2021/10/28 11:05:56;;;;;;;3.70;2.33;;;;;;;;;;5066757;28;20078;-79
2021/10/28 12:45:01;;;;;;;5.32;2.10;;;;;;;;;;5066499;28;20075;-78
2021/10/28 12:52:56;;;;;;;4.25;2.25;;;;;;;;;;5063985;28;20052;-78
2021/10/28 13:55:43;;;;;;;2.92;1.85;;;;;;;;;;5063535;28;20079;-78
2021/10/28 15:27:47;;;;;;;3.42;2.35;;;;;;;;;;5064373;28;20085;-77
2021/10/28 15:30:18;;;;;;;3.38;2.08;;;;;;;;;;5073047;28;20100;-78
2021/10/28 15:35:43;;;;;;;2.80;1.90;;;;;;;;;;5040302;28;20376;-78
2021/10/28 15:49:37;;;;;;;2.50;2.10;;;;;;;;;;5069707;28;20101;-77
2021/10/28 16:23:57;;;;;;;2.88;1.98;;;;;;;;;;5067698;28;20082;-81
2021/10/28 16:26:24;;;;;;;2.85;1.73;;;;;;;;;;5063515;28;20052;-81
2021/10/28 16:28:51;;;;;;;5.63;2.67;;;;;;;;;;5057831;28;20129;-80
2021/10/28 16:31:17;;;;;;;2.95;1.80;;;;;;;;;;5060180;28;20061;-80
2021/10/28 16:33:44;;;;;;;2.55;1.80;;;;;;;;;;5060735;28;20072;-79
2021/10/28 16:36:11;;;;;;;3.03;2.00;;;;;;;;;;5057771;28;20541;-80
2021/10/28 16:38:38;;;;;;;2.80;1.75;;;;;;;;;;5062364;28;20109;-81
2021/10/28 16:41:05;;;;;;;2.38;1.77;;;;;;;;;;5062291;28;20040;-80
2021/10/28 16:43:31;;;;;;;2.63;2.00;;;;;;;;;;5060452;28;20064;-80
2021/10/28 16:45:58;;;;;;;3.72;1.92;;;;;;;;;;5061450;28;20056;-81
2021/10/28 16:48:24;;;;;;;2.92;1.95;;;;;;;;;;5057935;28;20036;-80
2021/10/28 16:50:51;;;;;;;3.35;2.00;;;;;;;;;;5060628;28;20064;-81
2021/10/28 16:53:18;;;;;;;2.83;1.92;;;;;;;;;;5059058;28;20456;-80
2021/10/28 16:55:44;;;;;;;2.70;1.80;;;;;;;;;;5055748;28;20044;-80
2021/10/28 16:58:11;;;;;;;3.10;2.10;;;;;;;;;;5057298;28;20440;-79
2021/10/28 17:00:37;;;;;;;2.80;1.65;;;;;;;;;;5058061;28;20059;-81
2021/10/28 17:03:04;;;;;;;2.92;2.05;;;;;;;;;;5060310;28;20036;-80
2021/10/28 17:05:31;;;;;;;2.60;2.00;;;;;;;;;;5058805;28;20059;-80
2021/10/28 17:07:58;;;;;;;2.80;2.03;;;;;;;;;;5062898;28;20054;-81
2021/10/28 17:10:24;;;;;;;2.63;1.80;;;;;;;;;;5057414;28;20033;-80
2021/10/28 17:12:51;;;;;;;3.03;1.75;;;;;;;;;;5062841;28;20161;-80
2021/10/28 17:15:19;;;;;;;3.05;1.67;;;;;;;;;;5058569;28;20113;-81
2021/10/28 17:17:45;;;;;;;3.17;1.77;;;;;;;;;;5060341;28;20072;-79
2021/10/28 17:20:12;;;;;;;3.08;2.00;;;;;;;;;;5060432;28;20062;-80
2021/10/28 17:22:39;;;;;;;2.63;1.70;;;;;;;;;;5062269;28;20068;-81
2021/10/28 17:25:10;;;;;;;2.97;1.95;;;;;;;;;;5061226;28;20040;-78
2021/10/28 17:27:37;;;;;;;2.28;1.60;;;;;;;;;;5060003;28;21156;-78
2021/10/28 17:30:06;;;;;;;2.38;1.80;;;;;;;;;;5061769;28;20068;-79
2021/10/28 17:32:34;;;;;;;2.65;1.90;;;;;;;;;;5059435;28;20223;-79
2021/10/28 17:35:01;;;;;;;3.90;1.90;;;;;;;;;;5061546;28;20543;-78
2021/10/28 17:37:27;;;;;;;2.20;1.70;;;;;;;;;;5057170;28;20060;-79
2021/10/28 17:39:54;;;;;;;3.10;2.00;;;;;;;;;;5061583;28;20043;-79
2021/10/28 17:42:20;;;;;;;2.58;1.65;;;;;;;;;;5059320;28;20024;-80
2021/10/28 17:44:56;;;;;;;4.38;1.67;;;;;;;;;;5060585;28;20528;-78
2021/10/28 17:47:23;;;;;;;2.65;1.73;;;;;;;;;;5062087;28;20079;-78
2021/10/28 17:49:51;;;;;;;3.17;1.50;;;;;;;;;;5065209;28;20540;-78
2021/10/28 17:52:18;;;;;;;3.53;1.80;;;;;;;;;;5058932;28;20071;-79
2021/10/28 17:54:45;;;;;;;3.30;1.83;;;;;;;;;;5063984;28;20090;-78
2021/10/28 17:57:12;;;;;;;2.47;1.67;;;;;;;;;;5063853;28;20120;-78
2021/10/28 17:59:39;;;;;;;4.45;1.90;;;;;;;;;;5065733;28;20060;-79
2021/10/28 18:02:05;;;;;;;2.47;1.90;;;;;;;;;;5062683;28;20045;-79
2021/10/28 18:04:32;;;;;;;3.50;1.60;;;;;;;;;;5061654;28;20236;-78
2021/10/28 18:06:59;;;;;;;2.42;1.60;;;;;;;;;;5064814;28;20613;-79
2021/10/28 18:09:26;;;;;;;2.92;1.92;;;;;;;;;;5064823;28;20033;-79
2021/10/28 18:11:54;;;;;;;2.78;1.70;;;;;;;;;;5060540;28;21720;-78
2021/10/28 18:14:21;;;;;;;3.35;1.90;;;;;;;;;;5063214;28;20123;-77
2021/10/28 18:16:47;;;;;;;2.55;1.63;;;;;;;;;;5062464;28;20072;-78
2021/10/28 18:19:14;;;;;;;3.88;1.90;;;;;;;;;;5049525;28;20056;-79
2021/10/28 18:21:43;;;;;;;2.80;1.90;;;;;;;;;;5060243;28;20105;-78
2021/10/28 18:24:10;;;;;;;4.07;2.30;;;;;;;;;;5061307;28;20119;-78
2021/10/28 18:26:37;;;;;;;4.93;2.08;;;;;;;;;;5063798;28;20033;-77
2021/10/28 18:29:05;;;;;;;3.75;1.77;;;;;;;;;;5063184;28;20130;-78
2021/10/28 18:31:31;;;;;;;3.17;2.05;;;;;;;;;;5065098;28;20436;-78
2021/10/28 18:33:59;;;;;;;2.40;1.63;;;;;;;;;;5067895;28;20530;-77
2021/10/28 18:36:28;;;;;;;3.95;1.83;;;;;;;;;;5060734;28;20133;-79
2021/10/28 18:38:55;;;;;;;2.65;1.88;;;;;;;;;;5062659;28;21580;-79
2021/10/28 18:41:22;;;;;;;3.78;2.05;;;;;;;;;;5062846;27;20064;-77
2021/10/28 18:43:49;;;;;;;3.75;2.00;;;;;;;;;;5065858;28;20056;-77
2021/10/28 18:46:22;;;;;;;3.17;1.65;;;;;;;;;;5071078;28;20507;-76
2021/10/28 18:48:53;;;;;;;9.45;6.15;;;;;;;;;;5064806;28;20068;-80
2021/10/28 18:51:20;;;;;;;9.18;5.93;;;;;;;;;;5052661;28;20064;-76
2021/10/28 18:53:48;;;;;;;10.32;6.97;;;;;;;;;;5072369;28;20583;-78
2021/10/28 18:56:15;;;;;;;9.05;6.63;;;;;;;;;;5059705;28;20113;-79
2021/10/28 18:58:43;;;;;;;10.57;6.78;;;;;;;;;;5058870;28;20043;-77
2021/10/28 19:01:10;;;;;;;11.30;6.38;;;;;;;;;;5061748;28;20061;-77
2021/10/28 19:03:39;;;;;;;9.73;6.43;;;;;;;;;;5063759;28;20517;-77
2021/10/28 19:06:06;;;;;;;11.63;7.45;;;;;;;;;;5063287;28;20056;-75
2021/10/28 19:08:33;;;;;;;12.02;8.15;;;;;;;;;;5061789;28;21285;-76
2021/10/28 19:11:00;;;;;;;13.50;7.38;;;;;;;;;;5063464;28;20041;-76
2021/10/28 19:13:26;;;;;;;13.43;7.72;;;;;;;;;;5063823;28;20074;-77
2021/10/28 19:15:54;;;;;;;10.02;7.28;;;;;;;;;;5063312;28;20452;-77
2021/10/28 19:18:21;;;;;;;12.32;7.53;;;;;;;;;;5060929;28;20056;-77
2021/10/28 19:20:47;;;;;;;15.57;7.95;;;;;;;;;;5062384;28;20060;-76
2021/10/28 19:23:13;;;;;;;12.30;8.15;;;;;;;;;;5056245;28;20071;-76
2021/10/28 19:25:40;;;;;;;12.73;8.30;;;;;;;;;;5063197;28;20067;-77
2021/10/28 19:28:08;;;;;;;12.60;7.50;;;;;;;;;;5061087;28;20084;-77
2021/10/28 19:30:47;;;;;;;4.40;2.58;;;;;;;;;;5058920;28;21243;-76
2021/10/28 19:33:16;;;;;;;4.07;2.28;;;;;;;;;;5062407;28;20060;-76
2021/10/28 19:35:48;;;;;;;4.55;2.10;;;;;;;;;;5062143;28;20068;-76
2021/10/28 19:48:29;;;;;;;3.25;1.90;;;;;;;;;;5064754;28;20067;-77
2021/10/28 19:50:56;;;;;;;4.57;2.00;;;;;;;;;;5064505;28;20461;-77
2021/10/28 19:53:23;;;;;;;2.95;2.00;;;;;;;;;;5064707;28;20079;-77
2021/10/28 19:55:50;;;;;;;5.97;2.05;;;;;;;;;;5062570;28;20520;-77
2021/10/28 19:58:23;;;;;;;4.00;1.98;;;;;;;;;;5063515;28;20061;-77
2021/10/28 20:00:59;;;;;;;3.65;1.70;;;;;;;;;;5063648;28;20060;-77
2021/10/28 20:03:39;;;;;;;3.67;2.05;;;;;;;;;;5066699;28;20068;-76
2021/10/28 20:06:12;;;;;;;4.57;2.20;;;;;;;;;;5062732;28;20074;-76
2021/10/28 20:22:16;;;;;;;3.25;2.17;;;;;;;;;;5062323;28;20773;-77
2021/10/28 20:24:43;;;;;;;3.83;2.08;;;;;;;;;;5064454;28;20082;-76
2021/10/28 20:27:09;;;;;;;3.22;2.10;;;;;;;;;;5062910;28;20037;-76
2021/10/28 20:29:35;;;;;;;3.45;2.17;;;;;;;;;;5063163;28;20783;-76
2021/10/28 20:32:02;;;;;;;4.25;2.03;;;;;;;;;;5063972;28;20064;-76
2021/10/28 20:34:32;;;;;;;3.28;2.10;;;;;;;;;;5061113;28;20056;-77
2021/10/28 20:37:05;;;;;;;6.05;2.08;;;;;;;;;;5065628;28;20563;-77
2021/10/28 20:39:33;;;;;;;2.70;1.73;;;;;;;;;;5072557;28;20040;-76
2021/10/28 20:41:59;;;;;;;2.80;1.88;;;;;;;;;;5074762;28;20396;-77
2021/10/28 20:44:26;;;;;;;3.72;2.10;;;;;;;;;;5069919;28;20092;-77
2021/10/28 20:46:52;;;;;;;2.40;1.70;;;;;;;;;;5069648;28;20032;-77
2021/10/28 20:49:18;;;;;;;3.47;1.80;;;;;;;;;;5071720;28;20499;-77
2021/10/28 20:51:45;;;;;;;4.72;2.20;;;;;;;;;;5069798;28;20059;-76
2021/10/28 20:54:11;;;;;;;3.45;2.40;;;;;;;;;;5070831;28;20036;-76
2021/10/28 20:56:38;;;;;;;5.00;2.20;;;;;;;;;;5075793;28;20048;-77
2021/10/28 20:59:05;;;;;;;3.33;2.15;;;;;;;;;;5071086;28;20045;-76
2021/10/28 21:01:31;;;;;;;3.85;2.47;;;;;;;;;;5068288;28;20540;-77
2021/10/28 21:03:58;;;;;;;3.50;2.10;;;;;;;;;;5068585;28;20040;-78
2021/10/28 21:06:25;;;;;;;3.90;2.15;;;;;;;;;;5072182;28;20035;-77
2021/10/28 21:08:51;;;;;;;3.58;2.20;;;;;;;;;;5072815;28;20048;-76
2021/10/28 21:11:18;;;;;;;4.18;2.50;;;;;;;;;;5066306;28;20044;-77
2021/10/28 21:13:44;;;;;;;3.78;2.35;;;;;;;;;;5073161;28;20571;-76
2021/10/28 21:16:11;;;;;;;5.55;3.10;;;;;;;;;;5067473;28;20033;-77
2021/10/28 21:18:38;;;;;;;5.35;2.53;;;;;;;;;;5066964;28;20037;-77
2021/10/28 21:21:04;;;;;;;4.38;2.35;;;;;;;;;;5061810;28;20040;-76
2021/10/28 21:23:30;;;;;;;4.40;2.60;;;;;;;;;;5061566;28;20891;-76
2021/10/28 21:25:57;;;;;;;7.45;2.95;;;;;;;;;;5062386;28;20076;-77
2021/10/28 21:28:23;;;;;;;6.05;2.95;;;;;;;;;;5065524;28;20072;-76
2021/10/28 21:30:50;;;;;;;6.60;2.80;;;;;;;;;;5065695;28;20056;-77
2021/10/28 21:33:16;;;;;;;4.88;2.80;;;;;;;;;;5065537;28;20048;-76
2021/10/28 21:35:43;;;;;;;5.18;2.78;;;;;;;;;;5060152;28;20056;-76
2021/10/28 21:38:10;;;;;;;4.10;2.22;;;;;;;;;;5070102;28;20397;-77
2021/10/28 21:40:36;;;;;;;5.03;2.70;;;;;;;;;;5068430;28;20539;-76
2021/10/28 21:43:03;;;;;;;6.28;2.70;;;;;;;;;;5074628;28;20082;-76
2021/10/28 21:45:30;;;;;;;5.00;2.35;;;;;;;;;;5070203;28;20517;-75
2021/10/28 21:47:57;;;;;;;5.70;3.10;;;;;;;;;;5068913;28;20068;-77
2021/10/28 21:50:24;;;;;;;5.38;2.90;;;;;;;;;;5067981;28;20052;-76
2021/10/28 21:52:56;;;;;;;5.90;2.95;;;;;;;;;;5076126;28;20052;-76
2021/10/28 21:56:16;;;;;;;6.00;2.83;;;;;;;;;;5069682;28;20673;-76
2021/10/28 22:24:56;;;;;;;5.20;2.60;;;;;;;;;;5075877;28;20055;-76
2021/10/28 22:27:27;;;;;;;4.47;2.47;;;;;;;;;;5072918;28;20028;-75
2021/10/28 22:29:54;;;;;;;4.80;2.55;;;;;;;;;;5066878;28;20076;-76
2021/10/28 22:32:21;;;;;;;3.70;2.28;;;;;;;;;;5067490;28;20071;-77
2021/10/28 22:34:48;;;;;;;5.60;2.80;;;;;;;;;;5069764;28;20097;-77
2021/10/28 22:37:59;;;;;;;5.22;2.67;;;;;;;;;;5066842;28;20091;-76
2021/10/28 22:42:35;;;;;;;4.15;2.50;;;;;;;;;;5069173;28;20052;-77
2021/10/28 22:45:02;;;;;;;6.00;2.97;;;;;;;;;;5066529;28;20060;-77
2021/10/28 22:47:29;;;;;;;5.55;2.80;;;;;;;;;;5067749;28;20138;-77
2021/10/28 22:49:56;;;;;;;3.95;2.25;;;;;;;;;;5066630;28;20048;-77
2021/10/28 22:52:27;;;;;;;4.47;2.40;;;;;;;;;;5063971;28;20488;-77
2021/10/28 22:54:58;;;;;;;9.20;2.75;;;;;;;;;;5069244;28;20078;-77
2021/10/28 22:59:53;;;;;;;4.55;2.50;;;;;;;;;;5059010;28;20065;-77
2021/10/28 23:21:06;;;;;;;4.50;2.38;;;;;;;;;;5062124;28;20117;-77
2021/10/28 23:23:33;;;;;;;4.57;2.40;;;;;;;;;;5071513;28;20063;-77
2021/10/28 23:25:59;;;;;;;4.30;2.53;;;;;;;;;;5073774;28;20094;-77
2021/10/28 23:28:26;;;;;;;3.88;2.35;;;;;;;;;;5067443;28;20082;-77
2021/10/28 23:30:52;;;;;;;4.57;2.45;;;;;;;;;;5063765;28;20060;-76
2021/10/28 23:33:18;;;;;;;5.30;2.10;;;;;;;;;;5065624;28;20114;-76
2021/10/28 23:35:45;;;;;;;4.28;2.17;;;;;;;;;;5060643;28;20067;-77
2021/10/28 23:38:11;;;;;;;4.47;2.70;;;;;;;;;;5076956;28;20072;-77
2021/10/28 23:40:38;;;;;;;4.28;2.20;;;;;;;;;;5067801;28;20553;-77
2021/10/28 23:43:05;;;;;;;4.28;3.00;;;;;;;;;;5068179;28;20070;-76
2021/10/28 23:45:32;;;;;;;4.10;2.40;;;;;;;;;;5061939;28;20109;-77
2021/10/28 23:47:58;;;;;;;4.55;2.40;;;;;;;;;;5063084;28;20149;-77
2021/10/28 23:50:25;;;;;;;4.63;2.60;;;;;;;;;;5060252;28;20488;-76
2021/10/28 23:52:51;;;;;;;3.45;2.33;;;;;;;;;;5070202;28;20071;-76
2021/10/28 23:55:18;;;;;;;3.60;2.10;;;;;;;;;;5068165;28;20416;-77
2021/10/28 23:57:44;;;;;;;4.93;2.53;;;;;;;;;;5067417;28;20137;-78
